East Union, Washington
Current Conditions -  °F | °C
As of 8:53 AM on Saturday 22 Nov 2014 (Local Time) from KBFI Reporting Station
Light Rain Light Rain  
Wind Chill: 45°   Ceiling: 8000
Heat Index: 49°   Visibility: 10mi
Dew Point: 41°   Wind: 10mph
Humidity: 74%   Direction: 190°S
Pressure: 29.73"   Gusts: 18mph
Location:  47.6108°N, 122.302°W
Report Text: KBFI 221653Z 19009G16KT 10SM -RA SCT018 OVC080 09/05 A2973 RMK AO2 RAB50 SLP069 P0000 T00940050
Loading
Personal Weather Stations






























Interactive Weather Map New forecast layout! Learn more

10-Day Weather Forecast

Advertisements
Track Severe Weather on mobile